Portada
METAR-TAF:

METAR-TAF

Aeroports :

Chiang Mai, Tailàndia

latitud: 18-47N, longitud: 098-59E, altitud: 312 m

Observació

L'informe es va fer fa 34 minuts, a les 19:00 UTC
Vent calma
Temperatura 25°C
Humitat 61%
Pressió 1012 hPa
Visibilitat: 5000 m
calitja

METAR: VTCC 181900Z 00000KT 5000 HZ NSC 25/17 Q1012 NOSIG

Hora: 02:34 (19:34 UTC)

Pronòstic

L'informe es va fer fa 2 hores i 34 minuts, a les 17:00 UTC
Pronòstic vàlid del 18 a les 18 UTC al 19 a les 24 UTC
Vent 5 kt del Sud/Sud-Oest
Visibilitat: 5000 m
Escasses núvols a una alçada de 3500 ft
boirina

TAF: VTCC 181700Z 1818/1924 20005KT 5000 BR FEW035

Observacions i pronòstics meteorològics de més de 4000 aeroports (METAR i TAF).

Les estacions disponibles són els punts grocs i vermells al mapa.

Posi el ratolí al punt desitjat per veure el nom de l'estació.

Feu clic per veure les observacions i els pronòstics meteorològics.

Per canviar el mapa: feu clic els botons verds amb una creu de color negre per apropar; al botó verd amb un guió per allunyar la imatge; o en les fletxes verdes per a mapes adjacents.


METAR-TAF: